createdAt,value
2022-12-13T00:00:40.760Z,66.65
2022-12-13T00:01:45.271Z,67.03
2022-12-13T00:02:47.421Z,63.95
2022-12-13T00:03:50.720Z,72.97
2022-12-13T00:04:53.744Z,65.20
2022-12-13T00:05:55.852Z,70.53
2022-12-13T00:06:58.884Z,67.25
2022-12-13T00:08:01.877Z,71.63
2022-12-13T00:09:07.253Z,66.07
2022-12-13T00:10:09.683Z,71.35
2022-12-13T00:11:14.787Z,71.38
2022-12-13T00:12:17.930Z,71.30
2022-12-13T00:13:19.929Z,71.25
2022-12-13T00:14:23.095Z,69.82
2022-12-13T00:15:25.096Z,70.72
2022-12-13T00:16:28.650Z,69.90
2022-12-13T00:17:32.095Z,68.00
2022-12-13T00:18:35.309Z,63.90
2022-12-13T00:19:38.647Z,66.93
2022-12-13T00:20:40.710Z,65.57
2022-12-13T00:21:43.863Z,67.60
2022-12-13T00:22:45.900Z,63.90
2022-12-13T00:23:49.431Z,66.65
2022-12-13T00:24:55.088Z,67.38
2022-12-13T00:26:02.661Z,65.60
2022-12-13T00:27:06.019Z,68.55
2022-12-13T00:28:08.591Z,69.30
2022-12-13T00:29:12.255Z,68.97
2022-12-13T00:30:14.580Z,72.60
2022-12-13T00:32:41.603Z,65.00
2022-12-13T00:33:43.774Z,63.45
2022-12-13T00:34:46.948Z,71.90
2022-12-13T00:35:49.114Z,64.05
2022-12-13T00:36:52.299Z,62.20
2022-12-13T00:37:54.444Z,69.60
2022-12-13T00:39:03.433Z,67.68
2022-12-13T00:40:08.362Z,65.82
2022-12-13T00:41:13.896Z,68.65
2022-12-13T00:42:17.080Z,68.20
2022-12-13T00:43:19.286Z,64.35
2022-12-13T00:44:22.500Z,63.55
2022-12-13T00:45:25.646Z,66.28
2022-12-13T00:46:28.680Z,65.57
2022-12-13T00:47:31.999Z,62.55
2022-12-13T00:48:34.130Z,66.55
2022-12-13T00:49:37.321Z,61.97
2022-12-13T00:50:39.518Z,66.32
2022-12-13T00:51:42.838Z,63.90
2022-12-13T00:52:46.200Z,62.97
2022-12-13T00:53:48.510Z,61.85
2022-12-13T00:54:51.659Z,60.72
2022-12-13T00:55:55.183Z,61.00
2022-12-13T00:56:58.398Z,62.70
2022-12-13T00:58:00.628Z,62.90
2022-12-13T00:59:04.658Z,69.70
2022-12-13T01:00:09.322Z,63.80
2022-12-13T01:01:13.644Z,61.45
2022-12-13T01:02:16.851Z,63.05
2022-12-13T01:03:25.446Z,68.22
2022-12-13T01:04:28.685Z,67.05
2022-12-13T01:06:04.152Z,67.25
2022-12-13T01:06:55.252Z,71.10
2022-12-13T01:07:57.939Z,61.97
2022-12-13T01:09:01.843Z,63.45
2022-12-13T01:10:07.255Z,59.92
2022-12-13T01:11:11.672Z,65.82
2022-12-13T01:12:15.334Z,64.97
2022-12-13T01:13:17.589Z,64.38
2022-12-13T01:14:20.947Z,67.88
2022-12-13T01:15:23.237Z,61.88
2022-12-13T01:16:26.592Z,62.70
2022-12-13T01:17:30.732Z,61.65
2022-12-13T01:18:34.047Z,57.22
2022-12-13T01:19:37.294Z,65.75
2022-12-13T01:20:39.527Z,68.90
2022-12-13T01:21:42.812Z,68.57
2022-12-13T01:22:46.067Z,65.60
2022-12-13T01:23:48.279Z,67.38
2022-12-13T01:24:51.426Z,69.47
2022-12-13T01:25:53.722Z,61.65
2022-12-13T01:26:58.333Z,63.63
2022-12-13T01:28:00.537Z,67.13
2022-12-13T01:29:05.353Z,67.97
2022-12-13T01:30:08.187Z,62.25
2022-12-13T01:31:13.100Z,65.03
2022-12-13T01:32:16.297Z,60.13
2022-12-13T01:33:18.878Z,65.68
2022-12-13T01:34:26.304Z,69.97
2022-12-13T01:35:29.004Z,69.43
2022-12-13T01:36:32.157Z,66.28
2022-12-13T01:37:40.474Z,62.35
2022-12-13T01:38:43.884Z,63.75
2022-12-13T01:39:47.056Z,60.63
2022-12-13T01:40:57.767Z,61.17
2022-12-13T01:42:05.435Z,64.15
2022-12-13T01:43:14.895Z,66.07
2022-12-13T01:44:55.048Z,66.65
2022-12-13T01:45:58.273Z,64.35
2022-12-13T01:47:01.142Z,60.53
2022-12-13T01:48:07.782Z,61.75
2022-12-13T01:49:20.066Z,63.88
2022-12-13T01:50:27.305Z,63.85
2022-12-13T01:51:35.300Z,64.97
2022-12-13T01:52:38.566Z,66.88
2022-12-13T01:53:44.862Z,60.28
2022-12-13T01:54:51.083Z,64.32
2022-12-13T01:55:58.262Z,63.50
2022-12-13T01:57:03.476Z,58.75
2022-12-13T01:58:08.071Z,58.72
2022-12-13T01:59:11.772Z,64.10
2022-12-13T02:00:16.714Z,66.88
2022-12-13T02:01:19.221Z,60.55
2022-12-13T02:02:23.242Z,65.85
2022-12-13T02:03:26.537Z,62.42
2022-12-13T02:04:32.106Z,66.25
2022-12-13T02:05:38.314Z,62.72
2022-12-13T02:06:44.640Z,62.95
2022-12-13T02:07:47.880Z,57.05
2022-12-13T02:08:51.086Z,60.92
2022-12-13T02:09:56.361Z,60.92
2022-12-13T02:11:00.579Z,63.42
2022-12-13T02:12:04.958Z,69.47
2022-12-13T02:13:09.546Z,68.57
2022-12-13T02:14:12.718Z,68.45
2022-12-13T02:15:17.699Z,68.00
2022-12-13T02:16:38.887Z,67.63
2022-12-13T02:19:38.462Z,64.28
2022-12-13T02:21:18.172Z,64.15
2022-12-13T02:22:38.863Z,58.42
2022-12-13T02:25:20.741Z,60.13
2022-12-13T02:26:57.917Z,60.25
2022-12-13T02:28:31.845Z,61.47
2022-12-13T02:30:04.029Z,61.80
2022-12-13T02:31:13.744Z,61.30
2022-12-13T02:32:22.150Z,67.77
2022-12-13T02:33:39.241Z,65.35
2022-12-13T02:34:46.026Z,64.93
2022-12-13T02:35:54.306Z,61.85
2022-12-13T02:37:03.197Z,63.20
2022-12-13T02:38:13.024Z,64.22
2022-12-13T02:39:30.636Z,60.72
2022-12-13T02:40:39.614Z,64.32
2022-12-13T02:41:49.945Z,63.70
2022-12-13T02:43:00.307Z,66.00
2022-12-13T02:44:21.654Z,62.13
2022-12-13T02:45:30.440Z,60.15
2022-12-13T02:46:40.838Z,60.25
2022-12-13T02:47:44.356Z,62.50
2022-12-13T02:48:51.195Z,64.30
2022-12-13T02:49:58.200Z,61.50
2022-12-13T02:51:04.319Z,59.97
2022-12-13T02:52:08.316Z,59.70
2022-12-13T02:53:13.963Z,66.07
2022-12-13T02:54:16.111Z,59.90
2022-12-13T02:55:21.145Z,62.85
2022-12-13T02:56:27.129Z,68.32
2022-12-13T02:57:31.551Z,63.33
2022-12-13T02:58:37.678Z,60.88
2022-12-13T02:59:40.652Z,62.28
2022-12-13T03:00:55.512Z,62.22
2022-12-13T03:02:12.522Z,59.58
2022-12-13T03:03:34.199Z,60.92
2022-12-13T03:05:06.610Z,64.22
2022-12-13T03:06:34.157Z,60.60
2022-12-13T03:07:41.325Z,61.35
2022-12-13T03:08:53.266Z,65.00
2022-12-13T03:10:02.095Z,62.60
2022-12-13T03:11:08.535Z,56.95
2022-12-13T03:12:40.865Z,65.10
2022-12-13T03:13:52.070Z,60.05
2022-12-13T03:14:58.754Z,65.50
2022-12-13T03:16:09.669Z,62.40
2022-12-13T03:17:18.129Z,67.75
2022-12-13T03:18:22.424Z,62.60
2022-12-13T03:19:26.042Z,66.43
2022-12-13T03:20:29.554Z,63.33
2022-12-13T03:21:44.081Z,56.75
2022-12-13T03:22:50.922Z,59.83
2022-12-13T03:23:54.585Z,62.83
2022-12-13T03:24:56.808Z,64.53
2022-12-13T03:26:06.209Z,60.88
2022-12-13T03:27:09.397Z,63.80
2022-12-13T03:28:12.715Z,64.22
2022-12-13T03:29:24.637Z,65.60
2022-12-13T03:30:28.214Z,62.47
2022-12-13T03:31:32.103Z,64.65
2022-12-13T03:32:35.737Z,56.67
2022-12-13T03:33:39.710Z,62.17
2022-12-13T03:34:43.282Z,61.63
2022-12-13T03:35:48.234Z,60.67
2022-12-13T03:36:50.494Z,64.63
2022-12-13T03:37:53.950Z,57.88
2022-12-13T03:38:57.607Z,62.80
2022-12-13T03:40:00.037Z,60.67
2022-12-13T03:41:05.644Z,63.90
2022-12-13T03:42:07.915Z,64.50
2022-12-13T03:43:11.189Z,61.95
2022-12-13T03:44:13.986Z,62.03
2022-12-13T03:45:18.882Z,59.72
2022-12-13T03:46:21.079Z,56.60
2022-12-13T03:47:24.282Z,64.55
2022-12-13T03:48:28.273Z,60.22
2022-12-13T03:49:35.752Z,64.15
2022-12-13T03:50:38.109Z,59.00
2022-12-13T03:51:41.765Z,59.10
2022-12-13T03:52:44.434Z,61.60
2022-12-13T03:53:48.143Z,59.83
2022-12-13T03:54:50.362Z,62.83
2022-12-13T03:55:53.914Z,58.35
2022-12-13T03:56:56.097Z,65.18
2022-12-13T03:58:03.232Z,58.30
2022-12-13T03:59:09.411Z,55.72
2022-12-13T04:00:13.265Z,67.43
2022-12-13T04:01:18.226Z,65.90
2022-12-13T04:02:30.671Z,69.95
2022-12-13T04:03:36.921Z,59.97
2022-12-13T04:04:39.135Z,60.78
2022-12-13T04:05:42.563Z,56.90
2022-12-13T04:06:45.803Z,61.50
2022-12-13T04:07:48.728Z,66.53
2022-12-13T04:08:52.684Z,62.47
2022-12-13T04:09:54.977Z,62.78
2022-12-13T04:10:58.257Z,72.75
2022-12-13T04:12:18.776Z,57.83
2022-12-13T04:13:32.981Z,61.60
2022-12-13T04:14:36.302Z,61.75
2022-12-13T04:15:39.325Z,62.15
2022-12-13T04:16:42.560Z,66.82
2022-12-13T04:17:44.688Z,58.97
2022-12-13T04:18:55.772Z,62.03
2022-12-13T04:19:57.906Z,57.60
2022-12-13T04:21:01.068Z,62.65
2022-12-13T04:22:03.263Z,64.28
2022-12-13T04:23:10.171Z,63.63
2022-12-13T04:24:13.966Z,61.42
2022-12-13T04:25:16.587Z,62.05
2022-12-13T04:26:20.633Z,58.60
2022-12-13T04:27:22.827Z,63.80
2022-12-13T04:28:26.056Z,63.15
2022-12-13T04:29:34.107Z,62.00
2022-12-13T04:30:38.440Z,62.97
2022-12-13T04:31:41.898Z,60.35
2022-12-13T04:32:44.212Z,56.90
2022-12-13T04:33:47.415Z,64.38
2022-12-13T04:34:50.950Z,60.50
2022-12-13T04:35:54.231Z,65.35
2022-12-13T04:36:56.445Z,64.72
2022-12-13T04:37:59.988Z,58.00
2022-12-13T04:39:02.725Z,58.72
2022-12-13T04:40:07.228Z,59.63
2022-12-13T04:41:15.514Z,64.82
2022-12-13T04:42:18.713Z,59.28
2022-12-13T04:43:22.178Z,59.10
2022-12-13T04:44:28.155Z,62.17
2022-12-13T04:45:33.310Z,57.83
2022-12-13T04:46:35.519Z,62.72
2022-12-13T04:47:38.723Z,65.80
2022-12-13T04:48:40.863Z,58.47
2022-12-13T04:49:44.009Z,61.58
2022-12-13T04:50:47.685Z,58.80
2022-12-13T04:51:52.735Z,61.53
2022-12-13T04:52:59.187Z,58.08
2022-12-13T04:54:23.555Z,55.47
2022-12-13T04:55:24.580Z,61.20
2022-12-13T04:56:26.705Z,56.75
2022-12-13T04:57:29.812Z,60.42
2022-12-13T04:58:32.421Z,54.30
2022-12-13T04:59:35.788Z,60.20
2022-12-13T05:00:39.943Z,52.50
2022-12-13T05:01:47.601Z,53.80
2022-12-13T05:02:49.936Z,60.10
2022-12-13T05:03:53.291Z,58.90
2022-12-13T05:04:55.460Z,59.97
2022-12-13T05:06:00.828Z,54.10
2022-12-13T05:07:03.728Z,59.17
2022-12-13T05:08:07.122Z,57.92
2022-12-13T05:09:11.323Z,54.47
2022-12-13T05:10:34.129Z,56.92
2022-12-13T05:11:38.896Z,49.22
2022-12-13T05:12:48.182Z,52.65
2022-12-13T05:13:51.433Z,52.83
2022-12-13T05:14:54.044Z,55.60
2022-12-13T05:15:57.757Z,53.50
2022-12-13T05:17:00.130Z,59.28
2022-12-13T05:18:09.786Z,57.42
2022-12-13T05:19:13.965Z,52.17
2022-12-13T05:20:16.298Z,53.10
2022-12-13T05:21:20.874Z,52.15
2022-12-13T05:22:23.107Z,53.08
2022-12-13T05:23:26.349Z,53.10
2022-12-13T05:24:28.723Z,49.17
2022-12-13T05:25:32.021Z,53.38
2022-12-13T05:26:35.267Z,50.97
2022-12-13T05:27:38.520Z,56.63
2022-12-13T05:28:40.683Z,55.35
2022-12-13T05:29:43.901Z,56.40
2022-12-13T05:30:46.124Z,54.35
2022-12-13T05:31:49.576Z,58.55
2022-12-13T05:32:52.848Z,49.53
2022-12-13T05:33:55.162Z,52.15
2022-12-13T05:35:05.078Z,51.55
2022-12-13T05:36:08.168Z,51.80
2022-12-13T05:37:12.770Z,51.85
2022-12-13T05:38:15.513Z,50.67
2022-12-13T05:39:29.432Z,54.05
2022-12-13T05:40:32.659Z,49.28
2022-12-13T05:41:38.007Z,50.42
2022-12-13T05:42:40.166Z,48.38
2022-12-13T05:43:43.904Z,48.30
2022-12-13T05:44:46.250Z,49.08
2022-12-13T05:45:49.585Z,55.17
2022-12-13T05:46:51.815Z,50.22
2022-12-13T05:47:55.138Z,50.70
2022-12-13T05:48:57.258Z,49.85
2022-12-13T05:50:00.719Z,52.83
2022-12-13T05:51:11.080Z,52.90
2022-12-13T05:52:19.045Z,50.58
2022-12-13T05:53:30.858Z,51.95
2022-12-13T05:54:34.459Z,53.70
2022-12-13T05:55:38.813Z,51.55
2022-12-13T05:56:41.029Z,50.85
2022-12-13T05:57:50.379Z,54.60
2022-12-13T05:58:54.416Z,51.72
2022-12-13T05:59:58.827Z,52.70
2022-12-13T06:01:06.759Z,51.72
2022-12-13T06:02:10.024Z,54.15
2022-12-13T06:03:12.464Z,51.55
2022-12-13T06:04:22.347Z,56.65
2022-12-13T06:06:30.156Z,47.33
2022-12-13T06:07:33.977Z,51.28
2022-12-13T06:08:38.135Z,52.83
2022-12-13T06:09:40.373Z,52.00
2022-12-13T06:10:43.572Z,48.67
2022-12-13T06:11:45.738Z,50.00
2022-12-13T06:12:48.933Z,55.17
2022-12-13T06:13:52.330Z,57.65
2022-12-13T06:15:04.809Z,49.83
2022-12-13T06:16:25.435Z,53.90
2022-12-13T06:17:31.027Z,50.50
2022-12-13T06:18:35.774Z,52.50
2022-12-13T06:19:39.042Z,53.25
2022-12-13T06:20:41.282Z,48.10
2022-12-13T06:21:46.433Z,43.40
2022-12-13T06:22:51.161Z,46.72
2022-12-13T06:23:56.461Z,47.08
2022-12-13T06:25:01.577Z,49.33
2022-12-13T06:26:05.197Z,49.38
2022-12-13T06:27:08.351Z,52.75
2022-12-13T06:28:11.522Z,46.60
2022-12-13T06:29:24.540Z,44.50
2022-12-13T06:30:28.488Z,45.15
2022-12-13T06:31:30.628Z,45.63
2022-12-13T06:32:33.826Z,47.05
2022-12-13T06:33:36.719Z,46.63
2022-12-13T06:34:39.928Z,45.08
2022-12-13T06:35:42.344Z,46.42
2022-12-13T06:36:45.492Z,46.42
2022-12-13T06:37:54.414Z,46.15
2022-12-13T06:39:05.186Z,46.72
2022-12-13T06:40:09.336Z,49.60
2022-12-13T06:41:17.186Z,46.83
2022-12-13T06:42:21.852Z,49.47
2022-12-13T06:43:24.599Z,49.88
2022-12-13T06:44:27.964Z,46.75
2022-12-13T06:45:31.115Z,50.30
2022-12-13T06:46:34.492Z,51.08
2022-12-13T06:47:37.857Z,53.15
2022-12-13T06:48:40.701Z,45.92
2022-12-13T06:49:44.808Z,46.67
2022-12-13T06:50:48.673Z,51.65
2022-12-13T06:51:51.890Z,45.72
2022-12-13T06:52:56.598Z,49.55
2022-12-13T06:54:00.935Z,49.65
2022-12-13T06:55:04.573Z,51.40
2022-12-13T06:56:09.702Z,46.80
2022-12-13T06:57:12.927Z,48.72
2022-12-13T06:58:16.114Z,54.08
2022-12-13T06:59:19.340Z,50.92
2022-12-13T07:00:24.939Z,49.58
2022-12-13T07:01:36.989Z,44.83
2022-12-13T07:02:40.156Z,47.08
2022-12-13T07:03:43.612Z,45.65
2022-12-13T07:04:46.866Z,49.42
2022-12-13T07:05:52.442Z,47.78
2022-12-13T07:07:01.401Z,42.97
2022-12-13T07:08:07.440Z,46.05
2022-12-13T07:09:10.728Z,63.33
2022-12-13T07:10:22.202Z,46.85
2022-12-13T07:11:28.993Z,48.53
2022-12-13T07:12:32.881Z,49.05
2022-12-13T07:13:36.060Z,46.88
2022-12-13T07:14:41.014Z,49.25
2022-12-13T07:15:44.657Z,50.13
2022-12-13T07:16:47.899Z,50.45
2022-12-13T07:17:51.823Z,51.10
2022-12-13T07:18:54.542Z,51.38
2022-12-13T07:20:09.259Z,49.92
2022-12-13T07:21:21.655Z,49.22
2022-12-13T07:22:25.622Z,52.85
2022-12-13T07:23:30.420Z,48.28
2022-12-13T07:24:33.663Z,49.78
2022-12-13T07:25:36.991Z,48.50
2022-12-13T07:26:39.225Z,45.60
2022-12-13T07:27:44.743Z,44.97
2022-12-13T07:28:53.059Z,46.65
2022-12-13T07:29:58.201Z,44.75
2022-12-13T07:31:02.471Z,48.38
2022-12-13T07:32:06.038Z,46.30
2022-12-13T07:33:08.621Z,50.45
2022-12-13T07:34:15.613Z,47.25
2022-12-13T07:35:19.064Z,50.00
2022-12-13T07:36:24.358Z,43.08
2022-12-13T07:37:30.060Z,46.97
2022-12-13T07:38:35.634Z,45.63
2022-12-13T07:39:39.011Z,46.22
2022-12-13T07:40:42.396Z,51.97
2022-12-13T07:41:45.599Z,46.50
2022-12-13T07:42:51.149Z,46.03
2022-12-13T07:43:56.073Z,45.83
2022-12-13T07:44:59.493Z,43.60
2022-12-13T07:46:04.204Z,51.92
2022-12-13T07:47:07.461Z,49.58
2022-12-13T07:48:10.677Z,49.00
2022-12-13T07:49:13.889Z,45.92
2022-12-13T07:50:24.326Z,46.00
2022-12-13T07:51:28.806Z,46.72
2022-12-13T07:52:31.975Z,48.67
2022-12-13T07:53:36.804Z,47.90
2022-12-13T07:54:40.237Z,53.20
2022-12-13T07:55:43.469Z,45.35
2022-12-13T07:56:46.685Z,48.40
2022-12-13T07:57:49.829Z,45.50
2022-12-13T07:58:53.365Z,44.83
2022-12-13T07:59:55.614Z,47.88
2022-12-13T08:01:01.335Z,51.13
2022-12-13T08:02:04.672Z,51.22
2022-12-13T08:03:12.153Z,49.35
2022-12-13T08:04:27.528Z,45.83
2022-12-13T08:05:38.337Z,43.00
2022-12-13T08:06:42.418Z,45.63
2022-12-13T08:07:44.577Z,45.65
2022-12-13T08:08:51.206Z,47.72
2022-12-13T08:09:55.373Z,45.10
2022-12-13T08:11:02.394Z,45.80
2022-12-13T08:12:06.415Z,49.08
2022-12-13T08:13:09.722Z,46.08
2022-12-13T08:14:12.952Z,46.25
2022-12-13T08:15:16.296Z,48.78
2022-12-13T08:16:27.350Z,50.38
2022-12-13T08:17:32.305Z,45.67
2022-12-13T08:18:34.538Z,43.33
2022-12-13T08:19:37.701Z,44.85
2022-12-13T08:20:40.876Z,43.08
2022-12-13T08:22:01.488Z,46.03
2022-12-13T08:23:05.264Z,43.95
2022-12-13T08:24:15.466Z,41.03
2022-12-13T08:25:19.257Z,45.70
2022-12-13T08:26:25.017Z,40.92
2022-12-13T08:27:28.522Z,39.08
2022-12-13T08:28:32.909Z,41.08
2022-12-13T08:29:36.569Z,43.00
2022-12-13T08:30:39.779Z,38.28
2022-12-13T08:31:43.000Z,44.92
2022-12-13T08:32:46.289Z,40.33
2022-12-13T08:33:49.675Z,41.13
2022-12-13T08:34:52.855Z,38.15
2022-12-13T08:35:55.031Z,40.25
2022-12-13T08:37:02.001Z,41.90
2022-12-13T08:38:06.359Z,40.83
2022-12-13T08:39:11.007Z,41.10
2022-12-13T08:40:14.246Z,42.03
2022-12-13T08:41:17.462Z,46.03
2022-12-13T08:42:20.719Z,37.65
2022-12-13T08:43:24.865Z,38.28
2022-12-13T08:44:28.499Z,43.15
2022-12-13T08:45:32.214Z,35.72
2022-12-13T08:46:35.563Z,36.13
2022-12-13T08:47:41.803Z,42.42
2022-12-13T08:48:45.474Z,40.10
2022-12-13T08:49:47.906Z,39.55
2022-12-13T08:50:51.342Z,37.97
2022-12-13T08:51:54.469Z,38.13
2022-12-13T08:52:57.756Z,38.92
2022-12-13T08:54:10.461Z,44.40
2022-12-13T08:55:18.990Z,39.20
2022-12-13T08:56:24.386Z,38.25
2022-12-13T08:57:27.568Z,39.83
2022-12-13T08:58:31.463Z,40.63
2022-12-13T08:59:34.608Z,36.88
2022-12-13T09:00:38.530Z,39.97
2022-12-13T09:01:41.827Z,38.65
2022-12-13T09:02:45.304Z,38.03
2022-12-13T09:03:47.597Z,39.70
2022-12-13T09:04:50.762Z,35.38
2022-12-13T09:05:53.921Z,40.05
2022-12-13T09:06:57.207Z,36.70
2022-12-13T09:08:24.030Z,36.42
2022-12-13T09:09:29.321Z,40.75
2022-12-13T09:10:38.470Z,35.53
2022-12-13T09:11:42.033Z,43.63
2022-12-13T09:12:45.214Z,37.92
2022-12-13T09:13:48.642Z,43.70
2022-12-13T09:14:51.821Z,43.03
2022-12-13T09:15:55.066Z,40.75
2022-12-13T09:17:05.095Z,36.65
2022-12-13T09:18:08.353Z,38.20
2022-12-13T09:19:25.194Z,38.30
2022-12-13T09:20:30.222Z,43.28
2022-12-13T09:21:33.745Z,39.17
2022-12-13T09:22:36.994Z,34.30
2022-12-13T09:23:48.468Z,38.75
2022-12-13T09:24:51.841Z,36.28
2022-12-13T09:26:05.546Z,31.80
2022-12-13T09:27:27.532Z,37.28
2022-12-13T09:28:31.942Z,36.40
2022-12-13T09:29:36.558Z,31.98
2022-12-13T09:30:40.597Z,32.75
2022-12-13T09:31:48.308Z,35.03
2022-12-13T09:32:57.401Z,41.65
2022-12-13T09:34:00.624Z,36.80
2022-12-13T09:35:05.303Z,37.80
2022-12-13T09:36:11.765Z,37.72
2022-12-13T09:37:14.980Z,36.63
2022-12-13T09:38:26.436Z,37.17
2022-12-13T09:39:29.766Z,38.55
2022-12-13T09:40:37.857Z,35.33
2022-12-13T09:41:47.198Z,36.47
2022-12-13T09:43:11.856Z,37.50
2022-12-13T09:44:30.997Z,32.67
2022-12-13T09:45:42.981Z,41.55
2022-12-13T09:46:48.532Z,43.55
2022-12-13T09:47:53.872Z,34.45
2022-12-13T09:49:13.424Z,35.10
2022-12-13T09:50:25.652Z,35.42
2022-12-13T09:51:39.503Z,33.20
2022-12-13T09:52:47.507Z,37.70
2022-12-13T09:53:54.349Z,37.38
2022-12-13T09:54:59.524Z,32.55
2022-12-13T09:56:10.049Z,34.50
2022-12-13T09:57:31.133Z,34.28
2022-12-13T09:58:37.282Z,34.90
2022-12-13T09:59:42.823Z,30.52
2022-12-13T10:00:48.431Z,32.65
2022-12-13T10:01:51.959Z,32.97
2022-12-13T10:02:58.243Z,31.73
2022-12-13T10:04:02.290Z,33.55
2022-12-13T10:05:22.874Z,37.08
2022-12-13T10:06:31.487Z,36.28
2022-12-13T10:07:34.692Z,29.17
2022-12-13T10:08:44.690Z,26.67
2022-12-13T10:09:48.696Z,35.20
2022-12-13T10:10:53.970Z,29.90
2022-12-13T10:12:00.565Z,29.92
2022-12-13T10:13:17.830Z,29.10
2022-12-13T10:14:27.555Z,30.35
2022-12-13T10:15:34.411Z,30.15
2022-12-13T10:16:46.128Z,35.15
2022-12-13T10:17:51.952Z,30.77
2022-12-13T10:18:59.144Z,32.85
2022-12-13T10:20:04.552Z,30.25
2022-12-13T10:21:12.830Z,31.55
2022-12-13T10:22:17.989Z,32.90
2022-12-13T10:23:38.543Z,29.15
2022-12-13T10:24:53.073Z,31.63
2022-12-13T10:26:02.937Z,33.83
2022-12-13T10:27:13.687Z,30.80
2022-12-13T10:28:19.832Z,26.17
2022-12-13T10:29:23.198Z,31.60
2022-12-13T10:30:29.173Z,33.50
2022-12-13T10:31:41.581Z,36.60
2022-12-13T10:32:51.131Z,37.92
2022-12-13T10:33:58.445Z,36.72
2022-12-13T10:35:02.152Z,40.05
2022-12-13T10:36:31.052Z,44.20
2022-12-13T10:37:34.309Z,36.67
2022-12-13T10:38:40.144Z,31.45
2022-12-13T10:39:44.633Z,28.85
2022-12-13T10:40:49.182Z,28.83
2022-12-13T10:42:04.014Z,31.55
2022-12-13T10:43:09.070Z,33.20
2022-12-13T10:44:25.364Z,30.92
2022-12-13T10:45:28.825Z,28.17
2022-12-13T10:46:38.358Z,29.88
2022-12-13T10:47:45.168Z,32.20
2022-12-13T10:48:50.481Z,32.10
2022-12-13T10:49:58.775Z,33.00
2022-12-13T10:51:05.360Z,28.63
2022-12-13T10:52:31.611Z,28.02
2022-12-13T10:53:40.280Z,31.58
2022-12-13T10:54:50.720Z,29.15
2022-12-13T10:56:02.258Z,29.67
2022-12-13T10:57:06.557Z,27.98
2022-12-13T10:58:20.952Z,30.02
2022-12-13T10:59:33.870Z,26.35
2022-12-13T11:00:41.068Z,31.73
2022-12-13T11:01:44.325Z,29.17
2022-12-13T11:02:55.320Z,28.33
2022-12-13T11:04:02.126Z,29.13
2022-12-13T11:05:25.178Z,27.70
2022-12-13T11:06:30.378Z,29.90
2022-12-13T11:07:34.854Z,29.42
2022-12-13T11:08:38.785Z,27.42
2022-12-13T11:09:42.009Z,28.52
2022-12-13T11:10:45.640Z,31.45
2022-12-13T11:11:57.990Z,26.05
2022-12-13T11:13:04.399Z,28.00
2022-12-13T11:14:14.935Z,27.48
2022-12-13T11:15:26.539Z,27.17
2022-12-13T11:16:35.350Z,27.60
2022-12-13T11:17:48.898Z,28.70
2022-12-13T11:18:55.340Z,26.35
2022-12-13T11:20:01.842Z,27.17
2022-12-13T11:21:07.767Z,27.65
2022-12-13T11:22:20.046Z,26.45
2022-12-13T11:23:29.791Z,26.38
2022-12-13T11:24:35.410Z,26.38
2022-12-13T11:25:42.451Z,29.08
2022-12-13T11:26:53.780Z,31.65
2022-12-13T11:28:26.588Z,29.08
2022-12-13T11:30:02.987Z,26.55
2022-12-13T11:31:14.519Z,30.40
2022-12-13T11:32:28.449Z,27.42
2022-12-13T11:33:48.031Z,26.95
2022-12-13T11:35:00.086Z,32.20
2022-12-13T11:36:16.289Z,32.97
2022-12-13T11:37:29.918Z,31.02
2022-12-13T11:38:37.489Z,26.73
2022-12-13T11:39:46.780Z,28.42
2022-12-13T11:40:54.292Z,28.63
2022-12-13T11:42:02.814Z,31.88
2022-12-13T11:43:13.260Z,28.75
2022-12-13T11:44:22.896Z,29.95
2022-12-13T11:45:31.876Z,29.38
2022-12-13T11:46:41.834Z,32.33
2022-12-13T11:47:49.369Z,30.98
2022-12-13T11:48:57.861Z,27.92
2022-12-13T11:50:04.559Z,27.38
2022-12-13T11:51:11.493Z,29.13
2022-12-13T11:52:20.061Z,30.60
2022-12-13T11:53:31.351Z,27.35
2022-12-13T11:54:43.980Z,26.65
2022-12-13T11:55:53.499Z,26.30
2022-12-13T11:57:00.224Z,29.85
2022-12-13T11:58:16.438Z,27.90
2022-12-13T11:59:29.713Z,29.73
2022-12-13T12:00:37.077Z,30.20
2022-12-13T12:01:47.375Z,31.75
2022-12-13T12:03:00.063Z,26.52
2022-12-13T12:04:13.853Z,31.33
2022-12-13T12:05:28.403Z,28.40
2022-12-13T12:06:38.631Z,27.60
2022-12-13T12:08:12.685Z,32.63
2022-12-13T12:09:15.977Z,31.42
2022-12-13T12:10:28.243Z,29.52
2022-12-13T12:11:36.853Z,27.60
2022-12-13T12:12:43.944Z,27.17
2022-12-13T12:13:52.722Z,29.70
2022-12-13T12:15:15.082Z,29.75
2022-12-13T12:16:28.458Z,26.98
2022-12-13T12:17:42.045Z,29.48
2022-12-13T12:18:45.878Z,27.20
2022-12-13T12:19:53.660Z,28.83
2022-12-13T12:21:07.341Z,26.77
2022-12-13T12:22:24.444Z,29.60
2022-12-13T12:23:46.233Z,28.58
2022-12-13T12:25:04.085Z,29.13
2022-12-13T12:26:10.253Z,29.73
2022-12-13T12:27:26.098Z,30.15
2022-12-13T12:28:44.331Z,29.60
2022-12-13T12:30:03.913Z,26.80
2022-12-13T12:31:17.050Z,28.10
2022-12-13T12:32:31.233Z,28.08
2022-12-13T12:33:46.334Z,29.20
2022-12-13T12:34:57.548Z,28.35
2022-12-13T12:36:15.419Z,28.73
2022-12-13T12:37:25.918Z,31.30
2022-12-13T12:38:58.991Z,28.58
2022-12-13T12:40:46.200Z,28.83
2022-12-13T12:42:17.413Z,29.25
2022-12-13T12:43:27.798Z,27.70
2022-12-13T12:44:43.616Z,33.65
2022-12-13T12:46:00.176Z,29.13
2022-12-13T12:49:02.138Z,32.70
2022-12-13T12:50:24.648Z,31.52
2022-12-13T12:51:34.908Z,30.60
2022-12-13T12:52:49.764Z,26.15
2022-12-13T12:54:00.926Z,32.78
2022-12-13T12:55:12.282Z,29.73
2022-12-13T12:56:36.611Z,34.83
2022-12-13T12:57:50.468Z,30.92
2022-12-13T12:59:05.978Z,32.67
2022-12-13T13:00:13.396Z,37.42
2022-12-13T13:01:34.694Z,34.45
2022-12-13T13:02:47.701Z,36.78
2022-12-13T13:04:01.482Z,38.30
2022-12-13T13:05:17.459Z,38.17
2022-12-13T13:06:24.591Z,39.28
2022-12-13T13:07:39.629Z,38.40
2022-12-13T13:08:54.838Z,33.97
2022-12-13T13:09:59.645Z,37.13
2022-12-13T13:11:25.122Z,38.97
2022-12-13T13:12:33.229Z,40.65
2022-12-13T13:13:46.593Z,40.55
2022-12-13T13:14:50.360Z,38.60
2022-12-13T13:15:59.759Z,38.95
2022-12-13T13:17:42.670Z,38.70
2022-12-13T13:18:50.933Z,38.50
2022-12-13T13:20:13.247Z,40.30
2022-12-13T13:21:41.999Z,38.92
2022-12-13T13:22:58.521Z,39.08
2022-12-13T13:24:24.909Z,41.65
2022-12-13T13:25:35.221Z,39.78
2022-12-13T13:26:49.816Z,41.60
2022-12-13T13:28:01.842Z,38.90
2022-12-13T13:29:38.984Z,46.05
2022-12-13T13:31:05.361Z,39.03
2022-12-13T13:32:31.824Z,42.88
2022-12-13T13:33:45.720Z,43.95
2022-12-13T13:35:00.661Z,42.67
2022-12-13T13:36:49.129Z,42.25
2022-12-13T13:37:52.332Z,44.85
2022-12-13T13:39:01.641Z,42.35
2022-12-13T13:40:31.680Z,48.28
2022-12-13T13:41:55.744Z,46.85
2022-12-13T13:43:19.381Z,44.20
2022-12-13T13:44:50.294Z,44.35
2022-12-13T13:46:00.501Z,45.33
2022-12-13T13:47:15.260Z,43.53
2022-12-13T13:48:36.824Z,43.05
2022-12-13T13:49:55.840Z,44.53
2022-12-13T13:51:49.401Z,44.97
2022-12-13T13:53:12.827Z,43.05
2022-12-13T13:54:55.914Z,47.55
2022-12-13T13:56:08.441Z,46.58
2022-12-13T13:58:09.727Z,44.53
2022-12-13T14:00:02.972Z,43.70
2022-12-13T14:02:01.046Z,53.45
2022-12-13T14:03:38.689Z,46.58
2022-12-13T14:05:31.717Z,42.45
2022-12-13T14:07:11.947Z,50.13
2022-12-13T14:08:20.802Z,46.20
2022-12-13T14:09:55.257Z,50.13
2022-12-13T14:11:23.562Z,45.88
2022-12-13T14:13:19.616Z,47.70
2022-12-13T14:15:01.310Z,51.58
2022-12-13T14:16:46.235Z,46.22
2022-12-13T14:18:22.009Z,52.00
2022-12-13T14:20:07.792Z,54.90
2022-12-13T14:21:38.618Z,53.97
2022-12-13T14:22:46.725Z,48.55
2022-12-13T14:24:01.763Z,46.72
2022-12-13T14:25:24.522Z,45.40
2022-12-13T14:26:43.346Z,50.72
2022-12-13T14:27:49.949Z,49.38
2022-12-13T14:28:57.191Z,44.22
2022-12-13T14:29:59.990Z,46.53
2022-12-13T14:31:03.290Z,45.38
2022-12-13T14:32:26.367Z,47.95
2022-12-13T14:33:30.947Z,51.03
2022-12-13T14:34:35.091Z,51.90
2022-12-13T14:35:38.243Z,45.70
2022-12-13T14:36:45.243Z,50.40
2022-12-13T14:38:00.932Z,52.25
2022-12-13T14:39:05.930Z,51.25
2022-12-13T14:40:27.670Z,48.13
2022-12-13T14:41:31.061Z,47.17
2022-12-13T14:42:35.801Z,50.55
2022-12-13T14:43:39.076Z,47.85
2022-12-13T14:44:42.318Z,49.10
2022-12-13T14:45:46.306Z,45.20
2022-12-13T14:46:50.949Z,53.83
2022-12-13T14:47:55.211Z,50.63
2022-12-13T14:49:01.624Z,50.85